x

Mid Gulf - 180 Nm South Of Southwest Pass, La (42001) Wave Buoy

5:50pm - Sat 3rd Dec 2016 All times are UTC.

  • Sig Wave height 6.2ft
  • Swell Direction
  • Peak Period 8s
  • Average Period 5s
  • Wind
    20mph, 22mph gusts
  • Sea Temp 77°f
  • Air Temp 77°f
  • Sea Pressure 1014.4mb

More Historic Weather Station data

Upgrade to MSW Pro to gain access to the past 30 days of data for over 8000 Wavebouys and Weather Stations around the globe.

Join Pro

Comparision Forecast

View Surf forecast
   
Sat 12/03 5:50pm 6ft 8s 5s 20 22 mph 1014.4mb 77f 77f
4:50pm 6ft 7s 5s 18 22 mph 1015.8mb 77f 77f
3:50pm 6.5ft 6s 5s 18 22 mph 1016.5mb 77f 77f
2:50pm 6.5ft 7s 5s 20 25 mph 1016mb 77f 76f
1:50pm 6ft 7s  -  22 25 mph 1015.7mb 77f 76f
12:50pm 6ft 7s 5s 20 25 mph 1015.6mb 77f 76f
11:50am 6.5ft 7s 5s 22 27 mph 1015.4mb 77f 76f
10:50am 6ft 6s 5s 25 27 mph 1015.4mb 77f 76f
9:50am 7ft 7s 5s 22 27 mph 1015.8mb 77f 75f
8:50am 7ft 7s 5s 20 25 mph 1016.3mb 77f 76f
7:50am 7ft 6s 5s 22 27 mph 1016.5mb 77f 75f
6:50am 7ft 7s 5s 20 25 mph 1016.6mb 77f 76f
5:50am 6.5ft 6s 5s 22 25 mph 1017mb 77f 76f
4:50am 6ft 6s 5s 22 25 mph 1017.7mb 77f 76f
3:50am 6ft 6s 5s 22 27 mph 1017.4mb 77f 76f
2:50am 6ft 6s 5s 22 27 mph 1017.2mb 77f 76f
12:50am 6ft 6s 5s 25 31 mph 1016mb 77f 76f
Fri 12/02 11:50pm 5ft 6s 5s 22 27 mph 1016.2mb 77f 76f
10:50pm 5.5ft 6s 5s 22 27 mph 1016.1mb 77f 76f
9:50pm 5ft 6s 5s 22 27 mph 1015.5mb 77f 76f
8:50pm 5ft 6s 5s 22 27 mph 1015.6mb 77f 76f
7:50pm 5ft 5s 5s 22 25 mph 1015.9mb 77f 76f
6:50pm 5ft 6s 5s 20 25 mph 1016.6mb 77f 76f
5:50pm 5ft 6s 5s 22 27 mph 1017.3mb 77f 75f
4:50pm 4.5ft 6s 5s 20 25 mph 1018mb 77f 76f
3:50pm 4.5ft 6s 5s 20 25 mph 1018.4mb 77f 76f
2:50pm 4.5ft 7s 5s 18 22 mph 1018.5mb 77f 76f
1:50pm 4ft 5s 5s 18 20 mph 1017.9mb 77f 76f
12:50pm 4.5ft 7s 5s 20 22 mph 1017.2mb 77f 75f
11:50am 5ft 7s 5s 20 22 mph 1016.5mb 77f 75f
10:50am 4.5ft 6s 5s 20 22 mph 1016.1mb 77f 75f
9:50am 4.5ft 6s 5s 20 25 mph 1015.6mb 77f 75f
8:50am 4.5ft 6s 5s 18 22 mph 1015.8mb 77f 75f
7:50am 5ft 6s 5s 18 20 mph 1016mb 77f 75f
6:50am 5ft 7s 5s 20 22 mph 1016.1mb 78f 75f
5:50am 5.5ft 7s 5s 18 20 mph 1016.1mb 77f 75f
4:50am 6ft 7s 5s 20 22 mph 1016.4mb 78f 75f
3:50am 6ft 6s 5s 20 25 mph 1016.1mb 77f 75f
2:50am 6ft 7s 5s 22 25 mph 1016mb 77f 74f
1:50am 6ft 7s 5s 22 27 mph 1015.6mb 77f 74f
12:50am 6ft 7s 5s 25 29 mph 1015mb 77f 74f
Thu 12/01 11:50pm 6ft 7s 5s 22 27 mph 1014.6mb 78f 74f
10:50pm 6ft 7s 5s 22 25 mph 1014.5mb 78f 74f
9:50pm 6ft 7s 5s 22 25 mph 1014.1mb 78f 74f
8:50pm 6ft 7s 5s 20 22 mph 1014.1mb 78f 74f
7:50pm 6ft 7s 5s 20 22 mph 1014.3mb 78f 74f
6:50pm 6ft 6s 5s 18 22 mph 1014.8mb 78f 75f
4:50pm 6.5ft 8s 5s 20 25 mph 1015.9mb 77f 75f
3:50pm 6ft 7s 5s 20 25 mph 1016.1mb 77f 75f
2:50pm 6.5ft 7s 5s 20 22 mph 1016.3mb 78f 74f
1:50pm 7ft 7s 5s 20 27 mph 1015.7mb 78f 74f
12:50pm 6ft 8s 5s 20 25 mph 1014.9mb 78f 74f
11:50am 7ft 8s 6s 20 22 mph 1014.3mb 78f 74f
10:50am 7ft 8s 6s 20 22 mph 1013.7mb 78f 74f
9:50am 7ft 8s 6s 18 20 mph 1013.4mb 78f 74f
8:50am 8ft 8s 6s 18 22 mph 1013.1mb 78f 74f
7:50am 7ft 7s 6s 20 22 mph 1013.1mb 78f 74f
6:50am 6ft 7s 5s 18 20 mph 1013.3mb 78f 74f
5:50am 5.5ft 6s 5s 18 20 mph 1013.2mb 78f 74f
4:50am 5ft 6s 5s 18 22 mph 1013.4mb 78f 74f
3:50am 4.5ft 7s 5s 18 20 mph 1013.5mb 78f 74f
2:50am 4.5ft 7s 6s 18 25 mph 1013.3mb 78f 75f
1:50am 4.5ft 6s 6s 4 7 mph 1012.5mb 78f 78f
12:50am 4.5ft 7s 6s 9 11 mph 1011.9mb 78f 78f
Wed 11/30 11:50pm 5ft 7s 6s 9
mph
1011.7mb 78f 78f
10:50pm 5ft 7s 6s 9 11 mph 1011.3mb 78f 78f
9:50pm 5ft 7s 6s 11 13 mph 1010.8mb 78f 79f
8:50pm 5ft 7s 5s 11 13 mph 1010.6mb 78f 79f
7:50pm 5ft 7s 5s 13 16 mph 1010.7mb 78f 79f
6:50pm 6ft 7s 5s 13 18 mph 1010.9mb 78f 79f
5:50pm 6ft 7s 5s 16 18 mph 1011.2mb 78f 79f
4:50pm 6.5ft 7s 5s 18 20 mph 1011.4mb 78f 79f
3:50pm 7ft 7s 6s 20 25 mph 1011mb 78f 79f
2:50pm 6ft 8s 5s 20 22 mph 1010.4mb 78f 79f
1:50pm 7ft 7s 6s 20 25 mph 1009.8mb 78f 78f
12:50pm 7ft 7s 6s 18 22 mph 1009.3mb 78f 78f
11:50am 7ft 7s 6s 22 27 mph 1008.4mb 78f 78f
10:50am 7ft 7s 6s 22 27 mph 1007.9mb 78f 78f
9:50am 7ft 7s 6s 22 25 mph 1007.9mb 78f 78f
8:50am 7ft 7s 6s 22 25 mph 1008.1mb 78f 78f
7:50am 7ft 7s 5s 22 25 mph 1008.3mb 78f 78f
6:50am 7.5ft 7s 6s 22 27 mph 1008.8mb 78f 78f
5:50am 6ft 7s 5s 22 27 mph 1009.3mb 78f 78f
4:50am 7.5ft 7s 6s 22 27 mph 1009.7mb 78f 78f
3:50am 6.5ft 7s 5s 22 27 mph 1009.9mb 78f 79f
2:50am 6.5ft 7s 5s 20 25 mph 1009.8mb 78f 78f
1:50am 6.5ft 7s 5s 20 25 mph 1009.4mb 78f 79f
Tue 11/29 11:50pm 6.5ft 7s 6s 18 22 mph 1008.3mb 78f 78f
10:50pm 7ft 7s 6s 18 20 mph 1008.1mb 78f 78f
9:50pm 7ft 7s 6s 18 25 mph 1008mb 78f 79f
8:50pm 7ft 7s 6s 20 22 mph 1008.1mb 78f 79f
7:50pm 7ft 7s 5s 18 20 mph 1008.3mb 78f 79f